Flight Track Log - Related Links

Times and Time Zones

All times are in EDT time to prevent confusion due to time zone crossing. See the UPS1055 flight status page for this flight to view local times or setup timezone preferences in your user account.

Time Position Orientation Groundspeed Altitude Reporting Facility
EDT Latitude Longitude Course Direction KTS MPH feet Rate Location/Type
Wed 10:47:27 PM 33.8490 -84.1640 78° East 419 482 14,400  Level FlightAware ADS-B
Wed 10:48:09 PM 33.8650 -84.0690 79° East 428 493 15,700 1,857 Climbing FlightAware ADS-B
Wed 10:48:51 PM 33.8850 -83.9690 76° East 433 498 17,000 1,829 Climbing FlightAware ADS-B
Wed 10:49:31 PM 33.9220 -83.8830 63° Northeast 435 501 18,200 -21,366 Climbing FlightAware ADS-B
Wed 10:49:32 PM 42.9630 -71.4520 43° Northeast 165 190 2,400 -35,077 Descending FlightAware ADS-B
Wed 10:49:57 PM 42.9820 -71.4660 332° Northwest 189 217 3,000 23,442 Climbing FlightAware ADS-B
Wed 10:50:15 PM 33.9650 -83.8080 231° Southwest 442 509 19,200 3,176 Climbing FlightAware ADS-B
Wed 10:50:31 PM 42.9980 -71.5050 43° Northeast 217 250 4,800 2,143 Descending FlightAware ADS-B
Wed 10:50:57 PM 34.0240 -83.7080 231° Southwest 451 519 20,700 2,429 Climbing FlightAware ADS-B
Wed 10:51:13 PM 43.0140 -71.5680 43° Northeast 271 312 6,500 1,909 Descending FlightAware ADS-B
Wed 10:51:41 PM 34.0770 -83.6160 230° Southwest 461 531 22,100 4,050 Climbing FlightAware ADS-B
Wed 10:51:53 PM 43.0140 -71.6380 43° Northeast 272 313 9,200 1,902 Descending FlightAware ADS-B
Wed 10:52:22 PM 34.1270 -83.5300 230° Southwest 467 537 23,400 2,379 Climbing FlightAware ADS-B
Wed 10:52:51 PM 43.0140 -71.7420 42° Northeast 317 365 11,500 1,756 Descending FlightAware ADS-B
Wed 10:53:03 PM 34.1790 -83.4400 230° Southwest 474 545 24,600 24,353 Climbing FlightAware ADS-B
Wed 10:53:25 PM 34.2075 -83.3904 55° Northeast 473 544 25,300 -8,294 Climbing FlightAware ADS-B
Wed 10:54:11 PM 43.0120 -71.9150 42° Northeast 350 403 15,200 1,300 Descending FlightAware ADS-B
Wed 10:54:25 PM 34.2830 -83.2590 229° Southwest 492 566 26,600 2,933 Climbing FlightAware ADS-B
Wed 10:54:56 PM 43.0120 -72.0150 42° Northeast 358 412 17,400 1,077 Descending FlightAware ADS-B
Wed 10:55:04 PM 34.3350 -83.1680 229° Southwest 503 579 27,300 2,923 Climbing FlightAware ADS-B
Wed 10:55:35 PM 43.0110 -72.1060 42° Northeast 362 417 19,300 1,080 Descending FlightAware ADS-B
Wed 10:55:54 PM 34.4000 -83.0550 228° Southwest 511 588 28,200 2,875 Climbing FlightAware ADS-B
Wed 10:56:23 PM 43.0100 -72.2130 41° Northeast 359 413 21,600 1,650 Descending FlightAware ADS-B
Wed 10:56:34 PM 34.4570 -82.9560 228° Southwest 508 585 29,300 2,714 Climbing FlightAware ADS-B
Wed 10:57:05 PM 43.0090 -72.3110 41° Northeast 359 413 23,500 1,692 Descending FlightAware ADS-B
Wed 10:57:13 PM 34.5060 -82.8680 228° Southwest 505 581 30,400 11,846 Climbing FlightAware ADS-B
Wed 10:57:44 PM 34.5499 -82.7918 55° Northeast 504 580 31,200 1,619 Climbing FlightAware ADS-B
Wed 10:58:16 PM 34.5912 -82.7185 56° Northeast 499 574 32,100 1,568 Climbing FlightAware ADS-B
Wed 10:59:12 PM 34.6632 -82.5900 56° Northeast 493 567 33,500 1,465 Climbing FlightAware ADS-B
Wed 10:59:42 PM 34.7019 -82.5205 56° Northeast 492 566 34,200 2,200 Climbing FlightAware ADS-B
Wed 11:00:12 PM 34.7400 -82.4523 56° Northeast 480 552 35,700 2,459 Climbing FlightAware ADS-B
Wed 11:00:43 PM 34.7771 -82.3857 56° Northeast 466 536 36,700 1,279 Climbing FlightAware ADS-B
Wed 11:01:13 PM 34.8141 -82.3188 56° Northeast 470 541 37,000 237 Climbing FlightAware ADS-B
Wed 11:01:59 PM 34.8690 -82.2200 56° Northeast 478 550 37,000 -10,313 Level FlightAware ADS-B
Wed 11:02:17 PM 42.9990 -72.9770 39° Northeast 360 414 26,000  Descending FlightAware ADS-B
Wed 11:02:35 PM 34.9152 -82.1361 224° Southwest 476 548 37,000 13,200 Climbing FlightAware ADS-B
Wed 11:03:07 PM 34.9546 -82.0644 56° Northeast 480 552 37,000  Level FlightAware ADS-B
Wed 11:03:46 PM 35.0027 -81.9765 56° Northeast 482 555 37,000  Level FlightAware ADS-B
Wed 11:04:20 PM 35.0448 -81.8988 56° Northeast 484 557 37,000  Level FlightAware ADS-B
Wed 11:04:51 PM 35.0832 -81.8266 57° Northeast 485 558 37,000  Level FlightAware ADS-B
Wed 11:05:22 PM 35.1214 -81.7551 57° Northeast 485 558 37,000  Level FlightAware ADS-B
Wed 11:05:53 PM 35.1595 -81.6840 57° Northeast 487 560 37,000  Level FlightAware ADS-B
Wed 11:06:24 PM 35.1980 -81.6123 57° Northeast 488 562 37,000  Level FlightAware ADS-B
Wed 11:07:06 PM 35.2500 -81.5160 57° Northeast 490 564 37,000  Level FlightAware ADS-B
Wed 11:07:17 PM 35.2643 -81.4885 58° Northeast 491 565 37,000  Level FlightAware ADS-B
Wed 11:07:49 PM 35.3041 -81.4137 57° Northeast 492 566 37,000  Level FlightAware ADS-B
Wed 11:08:19 PM 35.3416 -81.3430 57° Northeast 491 565 37,000 -20,000 Level FlightAware ADS-B
Wed 11:08:22 PM 42.7570 -73.7850 36° Northeast 390 449 26,000  Descending FlightAware ADS-B
Wed 11:08:53 PM 35.3833 -81.2642 221° Southwest 492 566 37,000  Climbing FlightAware ADS-B
Wed 11:09:07 PM 42.7100 -73.8790 36° Northeast 388 447 26,000  Descending FlightAware ADS-B
Wed 11:09:46 PM 35.4483 -81.1409 220° Southwest 490 564 37,000  Climbing FlightAware ADS-B
Wed 11:09:54 PM 42.6660 -73.9700 35° Northeast 390 449 26,000  Descending FlightAware ADS-B
Wed 11:10:36 PM 35.5110 -81.0220 220° Southwest 491 565 37,000  Climbing FlightAware ADS-B
Wed 11:10:55 PM 42.6060 -74.0930 35° Northeast 389 448 26,000  Descending FlightAware ADS-B
Wed 11:11:31 PM 35.5780 -80.8930 219° Southwest 491 565 37,000  Climbing FlightAware ADS-B
Wed 11:11:44 PM 42.5510 -74.2000 35° Northeast 397 457 26,000  Descending FlightAware ADS-B
Wed 11:12:11 PM 35.6270 -80.7990 219° Southwest 491 565 37,000  Climbing FlightAware ADS-B
Wed 11:12:26 PM 42.4990 -74.2810 34° Northeast 397 457 26,000  Descending FlightAware ADS-B
Wed 11:13:03 PM 35.6830 -80.6890 218° Southwest 489 563 37,000  Climbing FlightAware ADS-B
Wed 11:13:10 PM 42.4470 -74.3630 34° Northeast 393 452 26,000  Descending FlightAware ADS-B
Wed 11:13:51 PM 35.7470 -80.5650 218° Southwest 487 560 37,000  Climbing FlightAware ADS-B
Wed 11:14:30 PM 42.3530 -74.5140 34° Northeast 392 451 26,000  Descending FlightAware ADS-B
Wed 11:14:40 PM 35.8000 -80.4630 217° Southwest 488 562 37,000  Climbing FlightAware ADS-B
Wed 11:15:13 PM 42.3050 -74.5910 33° Northeast 388 447 26,000  Descending FlightAware ADS-B
Wed 11:15:43 PM 35.8680 -80.3280 217° Southwest 487 560 37,000  Climbing FlightAware ADS-B
Wed 11:15:57 PM 42.2510 -74.6780 33° Northeast 393 452 26,000  Descending FlightAware ADS-B
Wed 11:16:25 PM 35.9320 -80.2020 216° Southwest 488 562 37,000 -632 Climbing FlightAware ADS-B
Wed 11:16:35 PM 42.2070 -74.7480 32° Northeast 388 447 25,600  Descending FlightAware ADS-B
Wed 11:17:15 PM 35.9870 -80.0930 215° Southwest 488 562 37,000 -1,067 Climbing FlightAware ADS-B
Wed 11:17:20 PM 42.1550 -74.8310 32° Northeast 393 452 24,800  Descending FlightAware ADS-B
Wed 11:17:51 PM 36.0240 -80.0210 215° Southwest 488 562 37,000 9,266 Climbing FlightAware ADS-B
Wed 11:18:39 PM 36.0730 -79.9240 58° Northeast 488 562 37,000  Level FlightAware ADS-B
Wed 11:19:15 PM 36.1090 -79.8520 58° Northeast 488 562 37,000 -23,429 Level FlightAware ADS-B
Wed 11:19:21 PM 42.0140 -75.0540 31° Northeast 375 432 20,600  Descending FlightAware ADS-B
Wed 11:20:03 PM 36.1580 -79.7550 213° Southwest 488 562 37,000 12,947 Climbing FlightAware ADS-B
Wed 11:20:37 PM 36.1930 -79.6870 57° Northeast 488 562 37,000 -26,341 Level FlightAware ADS-B
Wed 11:20:44 PM 41.9060 -75.1800 30° Northeast 379 436 19,000  Descending FlightAware ADS-B
Wed 11:21:26 PM 36.2430 -79.5880 213° Southwest 488 562 37,000 13,846 Climbing FlightAware ADS-B
Wed 11:22:02 PM 36.2790 -79.5150 59° Northeast 488 562 37,000 -20,571 Level FlightAware ADS-B
Wed 11:22:22 PM 41.7610 -75.2970 30° Northeast 357 411 17,800  Descending FlightAware ADS-B
Wed 11:22:49 PM 36.3270 -79.4200 212° Southwest 488 562 37,000 -1,857 Climbing FlightAware ADS-B
Wed 11:23:04 PM 41.7020 -75.3450 29° Northeast 351 404 16,500  Descending FlightAware ADS-B
Wed 11:23:34 PM 36.4750 -79.2140 211° Southwest 495 570 37,000 18,358 Climbing FlightAware ADS-B
Wed 11:24:11 PM 36.5290 -79.1170 55° Northeast 492 566 37,000  Level FlightAware ADS-B
Wed 11:24:56 PM 36.5870 -79.0130 55° Northeast 496 571 37,000  Level FlightAware ADS-B
Wed 11:25:30 PM 36.6340 -78.9280 55° Northeast 502 578 37,000  Level FlightAware ADS-B
Wed 11:26:20 PM 36.7000 -78.8100 55° Northeast 504 580 37,000  Level FlightAware ADS-B
Wed 11:26:45 PM 41.4040 -75.5850 27° Northeast 12,100  Descending FlightAware ADS-B
Wed 11:27:00 PM 36.7530 -78.7140 209° Southwest 507 583 37,000  Climbing FlightAware ADS-B
Wed 11:27:27 PM 41.3470 -75.6300 27° Northeast 356 410 12,100  Descending FlightAware ADS-B
Wed 11:27:45 PM 36.8120 -78.6080 208° Southwest 508 585 37,000  Climbing FlightAware ADS-B
Wed 11:28:15 PM 41.2900 -75.6760 26° Northeast 356 410 12,100  Descending FlightAware ADS-B
Wed 11:28:27 PM 36.8600 -78.5190 207° Southwest 506 582 37,000  Climbing FlightAware ADS-B
Wed 11:28:52 PM 41.2020 -75.6870 26° Northeast 389 448 12,100  Descending FlightAware ADS-B
Wed 11:29:05 PM 36.9280 -78.4240 207° Southwest 500 575 37,000  Climbing FlightAware ADS-B
Wed 11:29:38 PM 41.1210 -75.6590 26° Northeast 387 445 12,100  Descending FlightAware ADS-B
Wed 11:29:49 PM 37.0080 -78.3460 208° Southwest 500 575 37,000  Climbing FlightAware ADS-B
Wed 11:30:17 PM 41.0580 -75.6380 27° Northeast 389 448 12,100  Descending FlightAware ADS-B
Wed 11:30:27 PM 37.0780 -78.2790 208° Southwest 497 572 37,000 26,679 Climbing FlightAware ADS-B
Wed 11:31:13 PM 37.1610 -78.2000 37° Northeast 494 568 37,000 -19,063 Level FlightAware ADS-B
Wed 11:31:46 PM 40.9080 -75.5870 28° Northeast 379 436 11,900  Descending FlightAware ADS-B
Wed 11:31:58 PM 37.2420 -78.1230 209° Southwest 488 562 37,000 -1,286 Climbing FlightAware ADS-B
Wed 11:32:28 PM 40.8280 -75.5600 28° Northeast 386 444 11,000  Descending FlightAware ADS-B
Wed 11:32:43 PM 37.3190 -78.0490 210° Southwest 488 562 37,000 -1,200 Climbing FlightAware ADS-B
Wed 11:33:13 PM 40.7530 -75.5340 29° Northeast 368 423 10,100  Descending FlightAware ADS-B
Wed 11:33:29 PM 37.4090 -77.9630 210° Southwest 495 570 37,000  Climbing FlightAware ADS-B
Wed 11:33:53 PM 40.6840 -75.5110 29° Northeast 379 436 10,100  Descending FlightAware ADS-B
Wed 11:34:09 PM 37.4820 -77.8920 211° Southwest 498 573 37,000  Climbing FlightAware ADS-B
Wed 11:34:33 PM 40.6130 -75.4880 30° Northeast 377 434 10,100  Descending FlightAware ADS-B
Wed 11:34:51 PM 37.5590 -77.8180 211° Southwest 500 575 37,000  Climbing FlightAware ADS-B
Wed 11:35:18 PM 40.5440 -75.4640 31° Northeast 327 376 10,100 -1,227 Descending FlightAware ADS-B
Wed 11:35:35 PM 37.6400 -77.7400 212° Southwest 487 560 36,100  Climbing FlightAware ADS-B
Wed 11:36:02 PM 40.4790 -75.4420 31° Northeast 320 368 10,100 -2,211 Descending FlightAware ADS-B
Wed 11:36:13 PM 37.7080 -77.6740 213° Southwest 474 545 34,700 -143 Climbing FlightAware ADS-B
Wed 11:36:44 PM 40.4200 -75.4140 32° Northeast 320 368 10,000 -3,545 Descending FlightAware ADS-B
Wed 11:36:57 PM 37.7830 -77.6000 213° Southwest 458 527 32,100 -1,304 Climbing FlightAware ADS-B
Wed 11:37:07 PM 40.3900 -75.3960 33° Northeast 320 368 9,500 -1,350 Descending FlightAware ADS-B
Wed 11:37:37 PM 37.8490 -77.5370 214° Southwest 438 504 31,200 -1,548 Climbing FlightAware ADS-B
Wed 11:37:38 PM 40.3480 -75.3720 33° Northeast 317 365 8,700 -55,440 Descending FlightAware ADS-B
Wed 11:38:02 PM 40.3160 -75.3530 156° South 313 360 8,100 31,116 Descending FlightAware ADS-B
Wed 11:38:21 PM 37.9210 -77.4710 215° Southwest 453 521 31,000 -1,125 Climbing FlightAware ADS-B
Wed 11:38:34 PM 40.2740 -75.3280 35° Northeast 304 350 7,500  Descending FlightAware ADS-B
Wed 11:39:02 PM 37.9910 -77.4060 216° Southwest 475 547 31,000 -1,393 Climbing FlightAware ADS-B
Wed 11:39:30 PM 40.2020 -75.2870 36° Northeast 295 339 6,200  Descending FlightAware ADS-B
Wed 11:39:47 PM 38.0760 -77.3280 217° Southwest 492 566 31,000 -207 Climbing FlightAware ADS-B
Wed 11:39:59 PM 40.1680 -75.2670 37° Northeast 291 335 6,100 -53,571 Descending FlightAware ADS-B
Wed 11:40:15 PM 40.1510 -75.2500 143° Southeast 291 335 6,000 74,700 Descending FlightAware ADS-B
Wed 11:40:19 PM 38.1340 -77.2740 219° Southwest 494 568 31,000 -1,200 Climbing FlightAware ADS-B
Wed 11:40:40 PM 40.1260 -75.2190 38° Northeast 287 330 5,500  Descending FlightAware ADS-B
Wed 11:41:09 PM 38.2260 -77.1890 219° Southwest 496 571 31,000 -1,345 Climbing FlightAware ADS-B
Wed 11:41:38 PM 40.0690 -75.1500 40° Northeast 281 323 4,200  Descending FlightAware ADS-B
Wed 11:41:49 PM 38.3010 -77.1190 221° Southwest 496 571 31,000 -1,364 Climbing FlightAware ADS-B
Wed 11:42:00 PM 40.0500 -75.1270 41° Northeast 276 318 3,700 -54,000 Descending FlightAware ADS-B
Wed 11:42:20 PM 40.0270 -75.1130 155° Southeast 264 304 3,100 48,176 Descending FlightAware ADS-B
Wed 11:42:34 PM 38.3840 -77.0430 223° Southwest 497 572 31,000 -1,500 Climbing FlightAware ADS-B
Wed 11:42:44 PM 39.9990 -75.1040 42° Northeast 244 281 2,500  Descending FlightAware ADS-B
Wed 11:43:13 PM 38.4600 -76.9820 224° Southwest 493 567 31,000 -585 Climbing FlightAware ADS-B
Wed 11:43:25 PM 39.9580 -75.0940 44° Northeast 197 227 2,100  Descending FlightAware ADS-B
Wed 11:43:55 PM 38.5520 -76.9490 226° Southwest 486 559 31,000  Climbing FlightAware ADS-B
Wed 11:44:12 PM 39.9200 -75.0950 46° Northeast 162 186 2,100 -783 Descending FlightAware ADS-B
Wed 11:44:41 PM 38.6490 -76.8980 228° Southwest 502 578 30,400 -439 Climbing FlightAware ADS-B
Wed 11:44:53 PM 39.8980 -75.1130 47° Northeast 133 153 1,800 -1,532 Descending FlightAware ADS-B
Wed 11:45:28 PM 38.7080 -76.7850 228° Southwest 522 601 29,200 -417 Climbing FlightAware ADS-B
Wed 11:46:05 PM 39.8830 -75.1660 46° Northeast 133 153 1,300 -4,286 Descending FlightAware ADS-B
Wed 11:46:17 PM 38.7370 -76.6340 225° Southwest 528 608 25,700 -783 Climbing FlightAware ADS-B
Wed 11:46:28 PM 39.8790 -75.1840 44° Northeast 133 153 1,000 -2,182 Descending FlightAware ADS-B
Wed 11:47:01 PM 38.7620 -76.5040 223° Southwest 496 571 24,100 17,671 Climbing FlightAware ADS-B
Wed 11:47:41 PM 38.7840 -76.3900 76° East 503 579 22,500 -2,625 Descending FlightAware ADS-B
Wed 11:48:21 PM 38.8060 -76.2760 76° East 489 563 20,600 -2,786 Descending FlightAware ADS-B
Wed 11:49:05 PM 38.8290 -76.1560 76° East 460 529 18,600 -3,279 Descending FlightAware ADS-B
Wed 11:49:47 PM 38.8500 -76.0490 76° East 450 518 15,900 -2,429 Descending FlightAware ADS-B
Wed 11:50:29 PM 38.8720 -75.9390 76° East 437 503 15,200 -698 Descending FlightAware ADS-B
Wed 11:51:13 PM 38.9000 -75.8430 69° East 350 403 14,900 -565 Descending FlightAware ADS-B
Wed 11:51:54 PM 38.9430 -75.7890 44° Northeast 310 357 14,400 -1,229 Descending FlightAware ADS-B
Wed 11:52:36 PM 38.9940 -75.7410 36° Northeast 309 356 13,200 -1,714 Descending FlightAware ADS-B

Login

Don't have an account? Register now (free) for customized features, flight alerts, and more!